createdAt,value
2022-10-12T00:01:24.198Z,98598.78
2022-10-12T00:03:51.113Z,98601.72
2022-10-12T00:06:21.764Z,98607.72
2022-10-12T00:08:50.008Z,98586.94
2022-10-12T00:11:23.046Z,98604.66
2022-10-12T00:13:50.367Z,98622.41
2022-10-12T00:16:19.718Z,98610.53
2022-10-12T00:18:53.775Z,98620.28
2022-10-12T00:21:21.135Z,98615.88
2022-10-12T00:23:48.348Z,98597.16
2022-10-12T00:26:21.353Z,98570.88
2022-10-12T00:28:49.065Z,98514.25
2022-10-12T00:31:18.621Z,98487.75
2022-10-12T00:33:48.699Z,98534.84
2022-10-12T00:36:24.047Z,98549.44
2022-10-12T00:38:52.253Z,98533.84
2022-10-12T00:41:21.648Z,98531.88
2022-10-12T00:43:56.823Z,98526.31
2022-10-12T00:46:42.260Z,98527.13
2022-10-12T00:49:17.480Z,98502.41
2022-10-12T00:51:52.243Z,98447.22
2022-10-12T00:54:26.724Z,98429.28
2022-10-12T00:56:54.354Z,98426.97
2022-10-12T00:59:28.424Z,98395.94
2022-10-12T01:01:56.122Z,98367.72
2022-10-12T01:04:26.984Z,98364.78
2022-10-12T01:06:54.211Z,98337.53
2022-10-12T01:09:21.726Z,98329.13
2022-10-12T01:11:48.791Z,98330.09
2022-10-12T01:14:16.443Z,98339.91
2022-10-12T01:16:54.289Z,98327.56
2022-10-12T01:19:48.611Z,98354.44
2022-10-12T01:22:20.729Z,98349.50
2022-10-12T01:24:52.961Z,98344.63
2022-10-12T01:27:34.681Z,98315.44
2022-10-12T01:30:22.329Z,98259.78
2022-10-12T01:32:52.004Z,98223.75
2022-10-12T01:35:25.462Z,98181.66
2022-10-12T01:38:08.177Z,98172.88
2022-10-12T01:40:46.484Z,98182.56
2022-10-12T01:43:13.447Z,98184.31
2022-10-12T01:45:40.104Z,98157.13
2022-10-12T01:48:07.506Z,98187.72
2022-10-12T01:50:44.803Z,98182.72
2022-10-12T01:53:26.320Z,98171.47
2022-10-12T01:55:58.996Z,98208.63
2022-10-12T01:58:30.729Z,98230.72
2022-10-12T02:01:21.797Z,98227.47
2022-10-12T02:04:19.409Z,98254.34
2022-10-12T02:07:03.867Z,98238.38
2022-10-12T02:09:34.303Z,98230.28
2022-10-12T02:12:09.395Z,98235.72
2022-10-12T02:14:41.212Z,98211.06
2022-10-12T02:17:11.819Z,98206.75
2022-10-12T02:19:48.184Z,98215.47
2022-10-12T02:22:16.747Z,98193.53
2022-10-12T02:24:49.473Z,98188.16
2022-10-12T02:27:18.720Z,98192.00
2022-10-12T02:29:48.127Z,98176.22
2022-10-12T02:32:52.977Z,98163.03
2022-10-12T02:35:47.735Z,98135.81
2022-10-12T02:38:22.515Z,98085.47
2022-10-12T02:40:58.228Z,98074.25
2022-10-12T02:43:27.616Z,98067.13
2022-10-12T02:45:57.396Z,98074.28
2022-10-12T02:48:25.759Z,98074.06
2022-10-12T02:50:56.408Z,98082.94
2022-10-12T02:53:24.493Z,98062.78
2022-10-12T02:55:54.067Z,98062.47
2022-10-12T02:58:20.726Z,98051.25
2022-10-12T03:00:47.436Z,98034.66
2022-10-12T03:03:14.023Z,98036.28
2022-10-12T03:05:44.498Z,98070.25
2022-10-12T03:08:13.991Z,98085.72
2022-10-12T03:10:40.533Z,98102.28
2022-10-12T03:13:09.102Z,98116.53
2022-10-12T03:15:35.912Z,98094.34
2022-10-12T03:18:02.673Z,98078.75
2022-10-12T03:20:29.235Z,98140.69
2022-10-12T03:22:55.833Z,98126.50
2022-10-12T03:25:24.850Z,98114.13
2022-10-12T03:27:51.537Z,98125.94
2022-10-12T03:30:20.239Z,98108.84
2022-10-12T03:32:46.986Z,98094.38
2022-10-12T03:35:15.945Z,98101.84
2022-10-12T03:37:42.584Z,98105.19
2022-10-12T03:40:10.199Z,98094.47
2022-10-12T03:42:36.743Z,98102.50
2022-10-12T03:45:03.584Z,98124.47
2022-10-12T03:47:30.325Z,98118.06
2022-10-12T03:49:56.938Z,98104.41
2022-10-12T03:52:23.525Z,98093.50
2022-10-12T03:54:50.080Z,98084.41
2022-10-12T03:57:16.710Z,98089.19
2022-10-12T03:59:43.282Z,98083.88
2022-10-12T04:02:14.343Z,98053.91
2022-10-12T04:04:43.213Z,98046.34
2022-10-12T04:07:11.539Z,98075.00
2022-10-12T04:09:38.117Z,98069.47
2022-10-12T04:12:04.856Z,98060.84
2022-10-12T04:14:33.754Z,98053.06
2022-10-12T04:17:00.304Z,98042.88
2022-10-12T04:19:26.931Z,98029.78
2022-10-12T04:21:53.552Z,98009.59
2022-10-12T04:24:20.349Z,97993.16
2022-10-12T04:26:47.088Z,97972.22
2022-10-12T04:29:14.427Z,97964.22
2022-10-12T04:31:41.712Z,97969.97
2022-10-12T04:34:11.427Z,97994.16
2022-10-12T04:36:38.159Z,97996.25
2022-10-12T04:39:07.209Z,98015.56
2022-10-12T04:41:34.289Z,98020.97
2022-10-12T04:44:03.227Z,98013.69
2022-10-12T04:46:29.796Z,98018.78
2022-10-12T04:48:56.459Z,98020.41
2022-10-12T04:51:23.130Z,98008.00
2022-10-12T04:53:49.736Z,98003.19
2022-10-12T04:56:16.808Z,97994.66
2022-10-12T04:58:43.701Z,97974.88
2022-10-12T05:01:10.597Z,97995.75
2022-10-12T05:03:41.838Z,98030.34
2022-10-12T05:06:09.395Z,98040.25
2022-10-12T05:08:36.016Z,98007.66
2022-10-12T05:11:02.643Z,97992.13
2022-10-12T05:13:30.017Z,97984.34
2022-10-12T05:15:56.744Z,97975.19
2022-10-12T05:18:23.345Z,97966.38
2022-10-12T05:20:54.521Z,97996.47
2022-10-12T05:23:23.422Z,97994.84
2022-10-12T05:25:50.011Z,97983.06
2022-10-12T05:28:16.726Z,98002.31
2022-10-12T05:30:43.336Z,97995.03
2022-10-12T05:33:09.949Z,98007.09
2022-10-12T05:35:36.625Z,97992.34
2022-10-12T05:38:03.260Z,97985.41
2022-10-12T05:40:29.869Z,97976.50
2022-10-12T05:42:58.391Z,97972.69
2022-10-12T05:45:24.995Z,98001.09
2022-10-12T05:47:51.685Z,98016.88
2022-10-12T05:50:18.352Z,98017.72
2022-10-12T05:52:45.077Z,98024.13
2022-10-12T05:55:11.775Z,98013.41
2022-10-12T05:57:38.367Z,98028.38
2022-10-12T06:00:09.497Z,98021.44
2022-10-12T06:02:36.515Z,98049.28
2022-10-12T06:05:06.440Z,98045.53
2022-10-12T06:07:33.037Z,98049.19
2022-10-12T06:10:00.291Z,98065.78
2022-10-12T06:12:28.170Z,98089.81
2022-10-12T06:14:54.839Z,98062.53
2022-10-12T06:17:21.633Z,98050.13
2022-10-12T06:19:48.240Z,98058.66
2022-10-12T06:22:14.868Z,98080.34
2022-10-12T06:24:41.451Z,98064.47
2022-10-12T06:27:08.085Z,98059.66
2022-10-12T06:29:35.968Z,98054.19
2022-10-12T06:32:02.649Z,98056.75
2022-10-12T06:34:29.232Z,98069.03
2022-10-12T06:37:00.864Z,98060.69
2022-10-12T06:39:28.363Z,98059.13
2022-10-12T06:41:54.958Z,98068.69
2022-10-12T06:44:22.573Z,98079.63
2022-10-12T06:46:52.306Z,98115.41
2022-10-12T06:49:19.064Z,98123.44
2022-10-12T06:51:45.779Z,98122.31
2022-10-12T06:54:12.540Z,98142.13
2022-10-12T06:56:39.762Z,98151.56
2022-10-12T06:59:06.768Z,98159.78
2022-10-12T07:01:33.416Z,98159.72
2022-10-12T07:04:00.972Z,98166.25
2022-10-12T07:06:28.746Z,98130.97
2022-10-12T07:08:55.609Z,98094.63
2022-10-12T07:11:25.162Z,98056.03
2022-10-12T07:13:51.816Z,98030.25
2022-10-12T07:16:18.424Z,98000.16
2022-10-12T07:18:45.036Z,97959.91
2022-10-12T07:21:11.641Z,97923.75
2022-10-12T07:23:45.752Z,97902.84
2022-10-12T07:26:12.651Z,97897.56
2022-10-12T07:28:39.310Z,97882.38
2022-10-12T07:31:08.004Z,97887.97
2022-10-12T07:33:35.939Z,97883.47
2022-10-12T07:36:21.896Z,97893.41
2022-10-12T07:38:49.305Z,97915.06
2022-10-12T07:41:16.326Z,97924.63
2022-10-12T07:43:43.184Z,97948.44
2022-10-12T07:46:10.262Z,97956.81
2022-10-12T07:48:37.940Z,97964.47
2022-10-12T07:51:06.845Z,97978.81
2022-10-12T07:53:38.152Z,97997.16
2022-10-12T07:56:07.069Z,98006.94
2022-10-12T07:58:33.981Z,98017.19
2022-10-12T08:01:08.033Z,98038.75
2022-10-12T08:03:35.236Z,98048.00
2022-10-12T08:06:12.698Z,98061.03
2022-10-12T08:08:43.331Z,98077.06
2022-10-12T08:11:11.451Z,98092.47
2022-10-12T08:13:39.138Z,98098.25
2022-10-12T08:16:08.728Z,98111.75
2022-10-12T08:18:35.404Z,98123.72
2022-10-12T08:21:05.146Z,98138.06
2022-10-12T08:23:32.064Z,98154.75
2022-10-12T08:25:59.453Z,98175.28
2022-10-12T08:28:26.342Z,98171.06
2022-10-12T08:30:53.048Z,98189.38
2022-10-12T08:33:22.360Z,98198.31
2022-10-12T08:35:49.388Z,98219.19
2022-10-12T08:38:17.029Z,98244.66
2022-10-12T08:40:53.812Z,98260.00
2022-10-12T08:43:26.412Z,98277.88
2022-10-12T08:45:58.378Z,98283.91
2022-10-12T08:48:40.369Z,98313.66
2022-10-12T08:51:12.900Z,98346.72
2022-10-12T08:54:05.448Z,98384.06
2022-10-12T08:56:34.824Z,98416.84
2022-10-12T08:59:05.448Z,98467.66
2022-10-12T09:01:44.700Z,98511.19
2022-10-12T09:04:21.943Z,98552.81
2022-10-12T09:06:56.979Z,98603.03
2022-10-12T09:09:43.109Z,98640.56
2022-10-12T09:12:48.971Z,98672.25
2022-10-12T09:15:20.222Z,98704.09
2022-10-12T09:17:52.578Z,98723.09
2022-10-12T09:20:24.054Z,98739.19
2022-10-12T09:22:53.891Z,98750.16
2022-10-12T09:25:25.195Z,98777.06
2022-10-12T09:27:52.179Z,98795.84
2022-10-12T09:30:19.671Z,98821.94
2022-10-12T09:33:02.979Z,98845.31
2022-10-12T09:35:29.685Z,98872.53
2022-10-12T09:37:56.393Z,98883.06
2022-10-12T09:40:27.708Z,98899.69
2022-10-12T09:42:56.228Z,98920.09
2022-10-12T09:45:23.304Z,98929.50
2022-10-12T09:48:14.977Z,98946.56
2022-10-12T09:50:47.404Z,98950.28
2022-10-12T09:53:20.791Z,98957.69
2022-10-12T09:56:00.049Z,98963.88
2022-10-12T09:58:28.930Z,98972.91
2022-10-12T10:01:25.531Z,98989.09
2022-10-12T10:04:10.862Z,99001.88
2022-10-12T10:06:41.307Z,99018.31
2022-10-12T10:09:32.951Z,99036.28
2022-10-12T10:12:32.715Z,99035.28
2022-10-12T10:15:00.098Z,99041.25
2022-10-12T10:17:34.039Z,99055.06
2022-10-12T10:20:04.378Z,99064.03
2022-10-12T10:22:32.123Z,99070.66
2022-10-12T10:25:01.061Z,99089.50
2022-10-12T10:27:37.830Z,99101.47
2022-10-12T10:30:30.788Z,99104.94
2022-10-12T10:33:17.732Z,99122.28
2022-10-12T10:35:57.484Z,99130.00
2022-10-12T10:38:24.332Z,99139.94
2022-10-12T10:40:56.980Z,99208.72
2022-10-12T10:43:31.840Z,99190.13
2022-10-12T10:46:02.254Z,99171.59
2022-10-12T10:48:51.089Z,99173.22
2022-10-12T10:51:17.744Z,99178.25
2022-10-12T10:53:47.372Z,99180.22
2022-10-12T10:56:15.728Z,99182.16
2022-10-12T10:59:24.380Z,99196.47
2022-10-12T11:02:02.520Z,99196.31
2022-10-12T11:04:35.386Z,99244.72
2022-10-12T11:07:20.218Z,99266.47
2022-10-12T11:09:54.265Z,99268.03
2022-10-12T11:12:31.261Z,99250.88
2022-10-12T11:15:15.481Z,99267.75
2022-10-12T11:17:48.811Z,99278.53
2022-10-12T11:20:19.895Z,99271.34
2022-10-12T11:23:16.001Z,99257.41
2022-10-12T11:25:49.443Z,99258.69
2022-10-12T11:28:16.827Z,99262.81
2022-10-12T11:30:51.900Z,99260.56
2022-10-12T11:33:23.967Z,99249.81
2022-10-12T11:35:51.944Z,99261.00
2022-10-12T11:38:30.561Z,99263.28
2022-10-12T11:41:18.931Z,99261.06
2022-10-12T11:44:11.869Z,99268.94
2022-10-12T11:46:48.223Z,99261.59
2022-10-12T11:49:26.151Z,99268.69
2022-10-12T11:51:58.492Z,99276.22
2022-10-12T11:54:37.151Z,99274.31
2022-10-12T11:57:10.427Z,99266.34
2022-10-12T11:59:46.401Z,99275.94
2022-10-12T12:02:31.263Z,99271.31
2022-10-12T12:04:59.247Z,99286.69
2022-10-12T12:07:50.002Z,99308.81
2022-10-12T12:10:25.715Z,99304.63
2022-10-12T12:13:15.615Z,99294.75
2022-10-12T12:16:03.935Z,99294.16
2022-10-12T12:18:33.872Z,99288.44
2022-10-12T12:21:08.960Z,99311.00
2022-10-12T12:23:43.350Z,99315.19
2022-10-12T12:26:15.855Z,99318.56
2022-10-12T12:28:51.118Z,99314.41
2022-10-12T12:31:28.027Z,99321.28
2022-10-12T12:34:06.972Z,99334.38
2022-10-12T12:36:35.363Z,99341.84
2022-10-12T12:39:04.515Z,99333.75
2022-10-12T12:42:02.615Z,99351.44
2022-10-12T12:44:40.471Z,99341.13
2022-10-12T12:47:26.408Z,99325.03
2022-10-12T12:49:57.634Z,99326.06
2022-10-12T12:52:24.169Z,99322.09
2022-10-12T12:55:11.747Z,99343.44
2022-10-12T12:58:12.565Z,99349.41
2022-10-12T13:01:08.586Z,99366.19
2022-10-12T13:03:44.095Z,99386.53
2022-10-12T13:06:32.116Z,99376.03
2022-10-12T13:09:13.751Z,99373.84
2022-10-12T13:11:46.506Z,99362.50
2022-10-12T13:14:25.661Z,99380.84
2022-10-12T13:19:54.783Z,99399.88
2022-10-12T13:22:28.233Z,99414.88
2022-10-12T13:25:00.498Z,99401.84
2022-10-12T13:27:38.167Z,99428.16
2022-10-12T13:30:11.152Z,99430.25
2022-10-12T13:32:59.272Z,99428.50
2022-10-12T13:35:34.095Z,99421.38
2022-10-12T13:38:06.784Z,99417.34
2022-10-12T13:40:39.006Z,99419.81
2022-10-12T13:43:28.721Z,99419.34
2022-10-12T13:45:56.268Z,99416.16
2022-10-12T13:48:46.621Z,99415.94
2022-10-12T13:51:23.276Z,99408.16
2022-10-12T13:53:50.004Z,99415.13
2022-10-12T13:56:19.515Z,99400.88
2022-10-12T13:58:47.053Z,99398.53
2022-10-12T14:01:13.990Z,99390.56
2022-10-12T14:03:43.660Z,99404.69
2022-10-12T14:06:26.516Z,99401.78
2022-10-12T14:08:59.522Z,99395.50
2022-10-12T14:11:27.596Z,99383.38
2022-10-12T14:13:54.460Z,99389.88
2022-10-12T14:16:21.237Z,99376.78
2022-10-12T14:18:48.988Z,99388.03
2022-10-12T14:21:26.875Z,99367.81
2022-10-12T14:23:54.838Z,99363.53
2022-10-12T14:26:24.683Z,99371.19
2022-10-12T14:28:51.944Z,99354.16
2022-10-12T14:31:18.846Z,99352.63
2022-10-12T14:33:46.050Z,99337.38
2022-10-12T14:36:25.680Z,99344.88
2022-10-12T14:38:53.152Z,99330.41
2022-10-12T14:41:28.478Z,99328.09
2022-10-12T14:44:17.597Z,99318.66
2022-10-12T14:46:52.452Z,99311.50
2022-10-12T14:49:32.999Z,99317.59
2022-10-12T14:52:00.464Z,99337.47
2022-10-12T14:54:27.652Z,99336.50
2022-10-12T14:56:54.449Z,99357.94
2022-10-12T14:59:21.052Z,99360.03
2022-10-12T15:01:51.413Z,99352.50
2022-10-12T15:04:18.328Z,99365.47
2022-10-12T15:06:49.897Z,99345.13
2022-10-12T15:09:17.553Z,99330.06
2022-10-12T15:11:44.183Z,99336.78
2022-10-12T15:14:11.920Z,99334.56
2022-10-12T15:16:39.081Z,99297.94
2022-10-12T15:19:05.664Z,99254.09
2022-10-12T15:21:32.440Z,99269.50
2022-10-12T15:23:59.010Z,99233.91
2022-10-12T15:26:26.627Z,99209.81
2022-10-12T15:28:53.484Z,99221.72
2022-10-12T15:31:20.270Z,99212.16
2022-10-12T15:33:48.920Z,99212.56
2022-10-12T15:36:15.620Z,99216.59
2022-10-12T15:38:42.166Z,99211.00
2022-10-12T15:41:17.192Z,99198.97
2022-10-12T15:43:44.019Z,99188.25
2022-10-12T15:46:14.646Z,99202.72
2022-10-12T15:48:41.855Z,99191.59
2022-10-12T15:51:17.863Z,99173.50
2022-10-12T15:53:45.013Z,99177.72
2022-10-12T15:56:13.833Z,99175.59
2022-10-12T15:58:40.997Z,99154.66
2022-10-12T16:01:10.803Z,99121.19
2022-10-12T16:03:37.478Z,99140.78
2022-10-12T16:06:05.515Z,99126.13
2022-10-12T16:08:32.921Z,99102.19
2022-10-12T16:10:59.951Z,99101.84
2022-10-12T16:13:26.561Z,99110.38
2022-10-12T16:15:53.381Z,99101.59
2022-10-12T16:18:20.265Z,99091.34
2022-10-12T16:20:53.588Z,99081.69
2022-10-12T16:23:33.173Z,99086.41
2022-10-12T16:26:03.475Z,99058.78
2022-10-12T16:28:30.199Z,99039.53
2022-10-12T16:30:59.187Z,99045.31
2022-10-12T16:33:26.038Z,99047.91
2022-10-12T16:35:53.396Z,99037.13
2022-10-12T16:38:20.468Z,99024.22
2022-10-12T16:40:48.968Z,99047.13
2022-10-12T16:43:17.616Z,99022.72
2022-10-12T16:45:44.221Z,98996.13
2022-10-12T16:48:10.765Z,98999.09
2022-10-12T16:50:40.524Z,99017.22
2022-10-12T16:53:07.691Z,98991.63
2022-10-12T16:55:37.214Z,98969.19
2022-10-12T16:58:03.788Z,98973.69
2022-10-12T17:00:30.434Z,98956.19
2022-10-12T17:02:57.573Z,98928.69
2022-10-12T17:05:25.688Z,98908.97
2022-10-12T17:07:52.234Z,98907.84
2022-10-12T17:10:18.913Z,98895.56
2022-10-12T17:12:45.551Z,98869.47
2022-10-12T17:15:12.339Z,98855.06
2022-10-12T17:17:38.961Z,98848.69
2022-10-12T17:20:05.987Z,98822.66
2022-10-12T17:22:32.583Z,98832.13
2022-10-12T17:24:59.139Z,98820.63
2022-10-12T17:27:32.078Z,98813.84
2022-10-12T17:29:59.711Z,98775.97
2022-10-12T17:32:26.704Z,98743.28
2022-10-12T17:34:53.320Z,98756.25
2022-10-12T17:37:23.960Z,98771.66
2022-10-12T17:39:50.567Z,98732.47
2022-10-12T17:42:18.587Z,98706.72
2022-10-12T17:44:45.492Z,98695.50
2022-10-12T17:47:12.091Z,98721.06
2022-10-12T17:49:38.843Z,98710.66
2022-10-12T17:52:05.762Z,98704.28
2022-10-12T17:54:32.932Z,98720.47
2022-10-12T17:56:59.648Z,98696.47
2022-10-12T17:59:26.891Z,98710.28
2022-10-12T18:01:54.461Z,98699.91
2022-10-12T18:04:21.357Z,98677.72
2022-10-12T18:06:52.409Z,98676.69
2022-10-12T18:09:19.043Z,98679.13
2022-10-12T18:11:47.427Z,98684.03
2022-10-12T18:14:14.005Z,98681.59
2022-10-12T18:16:41.380Z,98695.94
2022-10-12T18:19:09.828Z,98706.53
2022-10-12T18:21:37.024Z,98703.38
2022-10-12T18:24:16.056Z,98694.63
2022-10-12T18:26:45.442Z,98700.03
2022-10-12T18:29:12.098Z,98714.84
2022-10-12T18:31:38.881Z,98726.66
2022-10-12T18:34:05.602Z,98681.69
2022-10-12T18:36:34.351Z,98669.91
2022-10-12T18:39:05.744Z,98677.03
2022-10-12T18:41:32.465Z,98685.13
2022-10-12T18:44:00.765Z,98661.78
2022-10-12T18:46:29.368Z,98647.13
2022-10-12T18:48:56.418Z,98640.38
2022-10-12T18:51:28.359Z,98598.94
2022-10-12T18:53:55.969Z,98628.25
2022-10-12T18:56:22.844Z,98613.19
2022-10-12T18:58:49.605Z,98565.03
2022-10-12T19:01:22.072Z,98543.00
2022-10-12T19:03:49.209Z,98569.13
2022-10-12T19:06:19.740Z,98561.88
2022-10-12T19:08:48.275Z,98531.16
2022-10-12T19:11:17.653Z,98527.13
2022-10-12T19:13:47.161Z,98513.00
2022-10-12T19:16:15.423Z,98450.41
2022-10-12T19:18:44.449Z,98451.88
2022-10-12T19:21:17.208Z,98467.84
2022-10-12T19:23:44.753Z,98424.78
2022-10-12T19:26:17.442Z,98395.34
2022-10-12T19:28:45.660Z,98408.75
2022-10-12T19:31:16.406Z,98406.72
2022-10-12T19:33:43.581Z,98374.00
2022-10-12T19:36:12.468Z,98353.28
2022-10-12T19:38:39.644Z,98361.91
2022-10-12T19:41:06.519Z,98350.22
2022-10-12T19:43:34.429Z,98338.50
2022-10-12T19:46:05.930Z,98313.88
2022-10-12T19:48:32.844Z,98320.25
2022-10-12T19:51:04.480Z,98309.91
2022-10-12T19:53:31.265Z,98298.78
2022-10-12T19:56:02.025Z,98284.81
2022-10-12T19:58:29.048Z,98280.38
2022-10-12T20:01:07.345Z,98269.22
2022-10-12T20:03:35.655Z,98233.66
2022-10-12T20:06:07.948Z,98228.25
2022-10-12T20:08:44.852Z,98217.47
2022-10-12T20:11:17.948Z,98179.63
2022-10-12T20:13:49.546Z,98156.59
2022-10-12T20:16:18.147Z,98150.06
2022-10-12T20:18:45.185Z,98157.72
2022-10-12T20:21:16.218Z,98138.63
2022-10-12T20:23:43.303Z,98115.94
2022-10-12T20:26:16.419Z,98139.28
2022-10-12T20:28:43.249Z,98118.50
2022-10-12T20:31:10.736Z,98102.44
2022-10-12T20:33:38.631Z,98085.91
2022-10-12T20:36:15.502Z,98088.31
2022-10-12T20:38:43.749Z,98054.78
2022-10-12T20:41:13.021Z,97992.22
2022-10-12T20:43:40.871Z,97985.97
2022-10-12T20:46:11.523Z,97964.84
2022-10-12T20:48:40.120Z,97908.38
2022-10-12T20:51:08.641Z,97892.63
2022-10-12T20:53:35.892Z,97885.53
2022-10-12T20:56:06.376Z,97892.91
2022-10-12T20:58:33.399Z,97857.34
2022-10-12T21:01:04.596Z,97838.34
2022-10-12T21:03:31.871Z,97857.22
2022-10-12T21:06:07.202Z,97846.25
2022-10-12T21:08:34.796Z,97824.09
2022-10-12T21:11:02.375Z,97804.59
2022-10-12T21:13:35.992Z,97825.69
2022-10-12T21:16:02.577Z,97797.47
2022-10-12T21:18:37.603Z,97739.25
2022-10-12T21:21:14.472Z,97714.63
2022-10-12T21:23:42.788Z,97687.47
2022-10-12T21:26:14.408Z,97662.34
2022-10-12T21:28:41.481Z,97607.63
2022-10-12T21:31:08.738Z,97611.69
2022-10-12T21:33:36.460Z,97624.00
2022-10-12T21:36:12.265Z,97618.06
2022-10-12T21:38:39.669Z,97614.88
2022-10-12T21:41:09.977Z,97617.94
2022-10-12T21:43:37.782Z,97560.59
2022-10-12T21:46:08.120Z,97489.81
2022-10-12T21:48:35.126Z,97457.34
2022-10-12T21:51:03.093Z,97445.28
2022-10-12T21:53:30.748Z,97410.59
2022-10-12T21:55:57.647Z,97396.06
2022-10-12T21:58:24.361Z,97393.50
2022-10-12T22:00:51.065Z,97475.97
2022-10-12T22:03:17.889Z,97482.75
2022-10-12T22:05:45.122Z,97487.09
2022-10-12T22:08:12.462Z,97490.38
2022-10-12T22:10:40.995Z,97512.09
2022-10-12T22:13:07.635Z,97461.56
2022-10-12T22:15:35.131Z,97421.22
2022-10-12T22:18:01.794Z,97414.19
2022-10-12T22:20:29.990Z,97372.97
2022-10-12T22:22:58.485Z,97360.81
2022-10-12T22:25:25.146Z,97348.84
2022-10-12T22:27:51.866Z,97355.22
2022-10-12T22:30:18.444Z,97382.75
2022-10-12T22:32:45.350Z,97367.22
2022-10-12T22:35:11.884Z,97366.50
2022-10-12T22:37:40.581Z,97378.84
2022-10-12T22:40:09.595Z,97372.44
2022-10-12T22:42:36.197Z,97349.59
2022-10-12T22:45:04.690Z,97337.03
2022-10-12T22:47:31.238Z,97312.38
2022-10-12T22:49:57.849Z,97272.22
2022-10-12T22:52:24.513Z,97255.69
2022-10-12T22:54:51.130Z,97288.91
2022-10-12T22:57:17.666Z,97313.69
2022-10-12T22:59:44.297Z,97297.94
2022-10-12T23:02:10.876Z,97277.16
2022-10-12T23:04:37.425Z,97282.34
2022-10-12T23:07:04.618Z,97265.78
2022-10-12T23:09:33.261Z,97248.56
2022-10-12T23:12:01.566Z,97244.84
2022-10-12T23:14:28.159Z,97250.06
2022-10-12T23:16:54.776Z,97240.38
2022-10-12T23:19:21.438Z,97218.00
2022-10-12T23:21:48.327Z,97215.66
2022-10-12T23:24:14.977Z,97199.88
2022-10-12T23:26:41.618Z,97203.53
2022-10-12T23:29:08.211Z,97179.09
2022-10-12T23:31:35.748Z,97170.97
2022-10-12T23:34:04.980Z,97152.06
2022-10-12T23:36:31.834Z,97132.03
2022-10-12T23:39:03.009Z,97125.53
2022-10-12T23:41:29.560Z,97139.34
2022-10-12T23:43:56.222Z,97150.28
2022-10-12T23:46:22.823Z,97132.84
2022-10-12T23:48:52.562Z,97132.03
2022-10-12T23:51:19.330Z,97130.91
2022-10-12T23:53:46.084Z,97125.50
2022-10-12T23:56:13.292Z,97122.78
2022-10-12T23:58:40.785Z,97125.19
